Time;durP1;ratioP1;P1;durP2;ratioP2;P2;SDS_P1;SDS_P2;PMS_P1;PMS_P2;Temp;Humidity;BMP_temperature;BMP_pressure;BME280_temperature;BME280_humidity;BME280_pressure;Samples;Min_cycle;Max_cycle;Signal;HPM_P1;HPM_P2
2023/09/21 00:02:16;;;;;;;11.20;6.85;;;;;;;22.42;54.04;95272.72;6238006;27;109345;-58
2023/09/21 00:05:21;;;;;;;9.03;6.53;;;;;;;22.59;53.05;95277.41;6237751;28;109274;-57
2023/09/21 00:08:25;;;;;;;8.25;6.50;;;;;;;22.60;53.12;95271.00;6229024;27;110782;-61
2023/09/21 00:11:30;;;;;;;9.35;6.38;;;;;;;22.39;53.59;95262.66;6229617;27;110346;-57
2023/09/21 00:14:35;;;;;;;7.53;6.20;;;;;;;22.27;53.99;95269.59;6237429;27;109285;-58
2023/09/21 00:17:40;;;;;;;8.73;6.70;;;;;;;22.43;53.52;95273.50;6237186;27;109024;-57
2023/09/21 00:20:51;;;;;;;8.70;6.20;;;;;;;22.54;53.62;95277.53;6225519;27;109081;-57
2023/09/21 00:23:55;;;;;;;8.23;5.90;;;;;;;22.40;53.58;95274.09;6237386;27;109123;-57
2023/09/21 00:26:59;;;;;;;7.30;5.70;;;;;;;22.41;53.48;95275.69;6237320;27;109338;-58
2023/09/21 00:30:05;;;;;;;8.53;6.60;;;;;;;22.47;53.28;95279.00;6236504;28;110294;-58
2023/09/21 00:33:11;;;;;;;6.70;6.00;;;;;;;22.52;53.32;95276.25;6226816;27;109001;-60
2023/09/21 00:36:17;;;;;;;8.52;5.95;;;;;;;22.66;52.65;95287.66;6237696;28;108979;-60
2023/09/21 00:39:21;;;;;;;8.85;6.40;;;;;;;22.69;53.16;95285.19;6249584;27;109124;-62
2023/09/21 00:42:24;;;;;;;6.75;5.60;;;;;;;22.78;52.35;95290.56;6237461;27;109001;-60
2023/09/21 00:45:29;;;;;;;7.03;5.85;;;;;;;22.81;52.87;95286.50;6213622;27;110069;-60
2023/09/21 00:48:38;;;;;;;6.95;6.25;;;;;;;22.93;52.51;95297.41;6233272;28;109178;-61
2023/09/21 00:51:43;;;;;;;6.78;6.00;;;;;;;22.99;51.92;95304.19;6223018;28;109164;-61
2023/09/21 00:54:46;;;;;;;7.60;6.80;;;;;;;22.95;52.48;95303.25;6227044;27;109301;-61
2023/09/21 00:57:53;;;;;;;8.00;6.60;;;;;;;22.91;52.44;95304.94;6240734;27;110174;-60
2023/09/21 01:00:57;;;;;;;7.70;6.90;;;;;;;22.82;52.54;95307.53;6228692;28;108893;-60
2023/09/21 01:04:06;;;;;;;7.50;6.55;;;;;;;22.81;52.68;95307.84;6229698;27;109027;-61
2023/09/21 01:07:20;;;;;;;9.90;6.57;;;;;;;22.80;52.76;95311.63;6226841;27;109024;-61
2023/09/21 01:10:24;;;;;;;9.60;7.10;;;;;;;22.82;52.78;95304.09;6243040;27;109783;-60
2023/09/21 01:13:28;;;;;;;9.00;7.60;;;;;;;22.56;53.19;95302.00;6236969;27;109380;-60
2023/09/21 01:16:31;;;;;;;8.95;6.88;;;;;;;22.36;53.58;95289.13;6236423;28;110194;-60
2023/09/21 01:19:35;;;;;;;8.25;7.20;;;;;;;22.34;54.14;95291.28;6221391;27;109194;-61
2023/09/21 01:22:41;;;;;;;10.75;6.60;;;;;;;22.26;54.39;95284.03;6236065;27;109073;-60
2023/09/21 01:25:49;;;;;;;9.17;6.40;;;;;;;22.27;53.63;95280.25;6236782;28;110300;-60
2023/09/21 01:28:52;;;;;;;8.75;6.15;;;;;;;22.40;53.68;95274.09;6225097;27;109135;-61
2023/09/21 01:31:56;;;;;;;7.72;6.93;;;;;;;22.28;53.71;95257.84;6236235;28;109034;-60
2023/09/21 01:34:59;;;;;;;8.95;6.55;;;;;;;22.19;54.20;95257.78;6260199;27;108958;-60
2023/09/21 01:38:03;;;;;;;9.00;6.85;;;;;;;22.34;53.57;95261.97;6252879;27;109311;-60
2023/09/21 01:41:08;;;;;;;9.75;7.40;;;;;;;22.58;53.05;95262.50;6225722;27;109200;-61
2023/09/21 01:44:11;;;;;;;9.95;7.40;;;;;;;22.74;52.96;95257.59;6236116;27;109199;-61
2023/09/21 01:47:15;;;;;;;8.63;6.70;;;;;;;22.61;53.42;95251.22;6235955;27;109198;-61
2023/09/21 01:50:21;;;;;;;7.40;6.68;;;;;;;22.38;54.14;95247.75;6237054;27;109229;-60
2023/09/21 01:53:24;;;;;;;7.93;6.90;;;;;;;22.28;53.72;95247.97;6225026;27;110351;-61
2023/09/21 01:56:29;;;;;;;8.20;6.45;;;;;;;22.18;53.88;95244.75;6235603;28;108848;-60
2023/09/21 01:59:33;;;;;;;9.27;6.53;;;;;;;22.06;54.04;95243.41;6234208;27;109216;-61
2023/09/21 02:02:36;;;;;;;9.80;6.25;;;;;;;22.08;54.21;95241.22;6230771;27;110670;-61
2023/09/21 02:05:40;;;;;;;9.70;6.40;;;;;;;22.22;53.71;95230.53;6230725;28;109178;-60
2023/09/21 02:08:44;;;;;;;8.23;6.90;;;;;;;22.08;53.98;95219.13;6233188;27;109132;-60
2023/09/21 02:11:49;;;;;;;8.63;6.93;;;;;;;21.94;54.39;95219.16;6235690;28;108986;-60
2023/09/21 02:14:52;;;;;;;7.83;6.77;;;;;;;21.73;55.43;95216.13;6233360;27;108972;-59
2023/09/21 02:17:56;;;;;;;7.85;6.82;;;;;;;21.73;55.84;95216.13;6233901;27;109006;-61
2023/09/21 02:21:01;;;;;;;7.90;6.97;;;;;;;21.79;55.55;95206.91;6235209;28;110066;-61
2023/09/21 02:24:05;;;;;;;10.43;7.07;;;;;;;21.72;56.20;95208.44;6234889;27;109098;-60
2023/09/21 02:27:09;;;;;;;8.73;6.90;;;;;;;21.61;56.31;95201.72;6223632;28;108851;-60
2023/09/21 02:30:14;;;;;;;9.53;7.30;;;;;;;21.68;56.75;95200.25;6234093;27;110345;-60
2023/09/21 02:33:18;;;;;;;8.80;7.30;;;;;;;21.68;56.75;95194.13;6235025;28;109286;-60
2023/09/21 02:36:21;;;;;;;8.93;7.40;;;;;;;21.82;55.89;95200.22;6229914;27;109023;-61
2023/09/21 02:39:25;;;;;;;9.50;7.20;;;;;;;21.76;56.17;95212.06;6221898;27;109416;-60
2023/09/21 02:42:30;;;;;;;10.07;7.77;;;;;;;21.89;56.14;95210.50;6233744;28;109478;-60
2023/09/21 02:45:36;;;;;;;8.77;7.88;;;;;;;21.99;55.58;95208.38;6233281;27;109199;-60
2023/09/21 02:48:40;;;;;;;9.10;8.00;;;;;;;21.93;56.36;95222.91;6221592;27;110137;-61
2023/09/21 02:51:44;;;;;;;8.57;7.10;;;;;;;21.89;55.79;95216.59;6208861;28;109224;-61
2023/09/21 02:54:47;;;;;;;14.97;12.47;;;;;;;21.99;55.78;95218.25;6225702;27;111005;-61
2023/09/21 02:57:58;;;;;;;25.67;23.17;;;;;;;22.01;56.18;95224.06;6233463;27;109502;-61
2023/09/21 03:01:01;;;;;;;48.63;44.33;;;;;;;21.97;56.24;95221.22;6224705;27;109617;-61
2023/09/21 03:04:05;;;;;;;25.52;22.92;;;;;;;21.97;55.52;95223.88;6233237;27;109058;-62
2023/09/21 03:07:08;;;;;;;20.67;18.70;;;;;;;21.99;56.25;95218.25;6228681;28;110401;-62
2023/09/21 03:10:13;;;;;;;35.67;32.55;;;;;;;21.99;55.62;95216.38;6231353;27;109222;-62
2023/09/21 03:13:19;;;;;;;46.15;41.75;;;;;;;22.19;55.49;95215.13;6222517;27;109253;-63
2023/09/21 03:16:23;;;;;;;28.30;25.80;;;;;;;22.35;54.82;95219.03;6222122;28;109135;-61
2023/09/21 03:19:27;;;;;;;28.50;26.00;;;;;;;22.53;54.29;95219.16;6231066;27;109276;-62
2023/09/21 03:22:30;;;;;;;20.33;18.45;;;;;;;22.43;54.64;95225.50;6223496;27;109787;-63
2023/09/21 03:25:34;;;;;;;15.70;14.10;;;;;;;22.38;54.41;95214.97;6231343;27;109059;-61
2023/09/21 03:28:38;;;;;;;18.90;17.00;;;;;;;22.45;54.31;95217.97;6238113;27;109057;-61
2023/09/21 03:31:42;;;;;;;18.88;17.08;;;;;;;22.28;54.66;95229.31;6227063;28;109423;-62
2023/09/21 03:34:46;;;;;;;14.82;13.43;;;;;;;22.27;54.70;95235.72;6225347;27;109005;-63
2023/09/21 03:37:50;;;;;;;16.33;14.63;;;;;;;22.38;54.61;95236.28;6237141;28;109251;-63
2023/09/21 03:40:53;;;;;;;13.27;11.98;;;;;;;22.33;55.04;95225.72;6228798;28;109296;-63
2023/09/21 03:43:58;;;;;;;12.10;10.90;;;;;;;22.34;54.70;95216.63;6219587;27;109303;-62
2023/09/21 03:47:03;;;;;;;12.63;10.13;;;;;;;22.35;54.32;95202.25;6226296;27;109728;-62
2023/09/21 03:50:11;;;;;;;12.13;10.10;;;;;;;22.47;54.04;95210.47;6236003;27;109266;-63
2023/09/21 03:53:15;;;;;;;11.93;10.63;;;;;;;22.49;54.07;95215.50;6236913;27;109086;-62
2023/09/21 03:56:19;;;;;;;13.27;11.00;;;;;;;22.61;53.71;95215.75;6230167;27;110783;-62
2023/09/21 03:59:23;;;;;;;13.30;12.00;;;;;;;22.75;54.03;95215.69;6230651;27;110049;-62
2023/09/21 04:02:26;;;;;;;13.75;12.27;;;;;;;22.79;53.38;95222.78;6236586;28;109772;-65
2023/09/21 04:05:31;;;;;;;14.07;12.20;;;;;;;22.75;53.99;95215.69;6236251;27;109173;-67
2023/09/21 04:08:34;;;;;;;12.52;11.23;;;;;;;22.85;53.46;95213.56;6224251;27;109987;-64
2023/09/21 04:11:38;;;;;;;12.23;11.13;;;;;;;22.92;52.83;95216.56;6226754;28;109117;-64
2023/09/21 04:14:46;;;;;;;13.43;12.13;;;;;;;22.92;52.68;95215.78;6235738;27;109355;-65
2023/09/21 04:17:49;;;;;;;11.67;10.27;;;;;;;22.86;52.99;95209.03;6230215;28;109296;-67
2023/09/21 04:20:53;;;;;;;10.90;9.90;;;;;;;22.88;52.96;95220.16;6224223;28;109169;-68
2023/09/21 04:24:16;;;;;;;14.05;12.65;;;;;;;22.98;52.90;95225.22;6235838;27;108766;-66
2023/09/21 04:27:21;;;;;;;12.77;10.80;;;;;;;23.05;53.01;95217.59;6233892;28;109395;-67
2023/09/21 04:30:25;;;;;;;10.50;8.57;;;;;;;23.08;52.78;95224.19;6214687;27;109470;-65
2023/09/21 04:33:28;;;;;;;11.82;9.07;;;;;;;23.06;53.03;95221.81;6230931;27;109053;-65
2023/09/21 04:36:32;;;;;;;11.18;9.40;;;;;;;23.12;53.12;95228.59;6237461;27;109211;-65
2023/09/21 04:39:35;;;;;;;11.52;8.40;;;;;;;23.21;52.58;95223.31;6232613;27;109085;-67
2023/09/21 04:42:39;;;;;;;12.10;7.78;;;;;;;23.33;52.40;95214.72;6223610;27;109087;-66
2023/09/21 04:45:48;;;;;;;9.63;7.70;;;;;;;23.20;52.12;95222.53;6255253;27;109258;-66
2023/09/21 04:48:51;;;;;;;9.90;7.55;;;;;;;23.02;52.65;95218.22;6260992;27;110177;-67
2023/09/21 04:51:54;;;;;;;10.30;7.25;;;;;;;22.94;52.59;95218.94;6260955;27;109271;-67
2023/09/21 04:54:59;;;;;;;10.25;7.10;;;;;;;22.86;52.65;95220.47;6236406;27;109231;-66
2023/09/21 04:58:02;;;;;;;10.30;6.97;;;;;;;22.84;52.81;95221.84;6234932;28;109439;-66
2023/09/21 05:01:10;;;;;;;8.33;6.90;;;;;;;22.79;52.26;95222.00;6227672;27;109703;-65
2023/09/21 05:04:13;;;;;;;9.70;7.10;;;;;;;22.78;52.29;95218.53;6220878;27;109461;-64
2023/09/21 05:07:17;;;;;;;8.40;6.63;;;;;;;22.78;52.43;95217.75;6217886;28;109153;-66
2023/09/21 05:10:20;;;;;;;12.63;7.30;;;;;;;22.76;52.29;95222.59;6224662;27;109355;-66
2023/09/21 05:13:23;;;;;;;10.13;7.20;;;;;;;22.76;52.11;95227.94;6236087;28;110223;-69
2023/09/21 05:16:28;;;;;;;8.98;7.40;;;;;;;22.77;52.48;95229.53;6224276;27;109750;-69
2023/09/21 05:19:32;;;;;;;9.50;6.90;;;;;;;22.80;51.98;95236.91;6235745;27;109386;-69
2023/09/21 05:22:35;;;;;;;8.73;6.90;;;;;;;22.81;52.00;95241.16;6235446;28;109275;-70
2023/09/21 05:25:38;;;;;;;8.57;6.60;;;;;;;22.78;52.22;95237.22;6229058;27;109579;-69
2023/09/21 05:28:43;;;;;;;8.32;6.60;;;;;;;22.78;52.27;95234.53;6199764;28;109364;-69
2023/09/21 05:31:48;;;;;;;8.00;7.20;;;;;;;22.81;52.17;95236.59;6235182;28;109070;-69
2023/09/21 05:34:52;;;;;;;9.18;6.90;;;;;;;22.81;52.35;95227.81;6244250;27;109974;-69
2023/09/21 05:37:55;;;;;;;10.77;7.00;;;;;;;22.81;52.40;95225.13;6260353;27;109348;-69
2023/09/21 05:40:58;;;;;;;7.32;6.63;;;;;;;22.83;52.32;95226.41;6249317;27;111150;-70
2023/09/21 05:44:01;;;;;;;11.40;7.22;;;;;;;22.88;52.04;95228.19;6259927;27;109212;-69
2023/09/21 05:47:06;;;;;;;9.02;6.50;;;;;;;22.93;52.17;95230.72;6260583;27;111131;-69
2023/09/21 05:50:09;;;;;;;9.45;6.90;;;;;;;22.96;51.40;95227.41;6252101;27;109967;-67
2023/09/21 05:53:12;;;;;;;10.57;6.60;;;;;;;22.99;51.94;95221.47;6258403;27;109236;-69
2023/09/21 05:56:17;;;;;;;8.48;6.35;;;;;;;23.05;51.67;95222.94;6236916;27;109226;-68
2023/09/21 05:59:22;;;;;;;9.03;6.83;;;;;;;23.10;51.25;95228.13;6237325;27;109234;-68
2023/09/21 06:02:28;;;;;;;8.68;6.90;;;;;;;23.15;51.23;95229.84;6249005;27;109360;-68
2023/09/21 06:05:32;;;;;;;7.60;6.37;;;;;;;23.17;51.44;95228.44;6246170;27;109120;-69
2023/09/21 06:08:36;;;;;;;7.85;7.00;;;;;;;23.17;51.24;95228.44;6234151;28;109087;-69
2023/09/21 06:11:40;;;;;;;8.10;7.20;;;;;;;23.18;51.28;95235.38;6234159;27;109032;-69
2023/09/21 06:14:43;;;;;;;9.60;7.20;;;;;;;23.19;51.37;95236.19;6223294;27;110072;-69
2023/09/21 06:17:47;;;;;;;8.60;7.70;;;;;;;23.19;51.47;95236.19;6234264;28;109295;-68
2023/09/21 06:20:53;;;;;;;8.80;7.90;;;;;;;23.22;51.17;95240.91;6234604;27;109035;-68
2023/09/21 06:23:56;;;;;;;12.02;10.68;;;;;;;23.23;51.20;95235.25;6229436;27;110148;-59
2023/09/21 06:26:59;;;;;;;12.50;10.20;;;;;;;23.23;51.47;95237.94;6240538;27;110191;-59
2023/09/21 06:30:02;;;;;;;13.27;10.77;;;;;;;23.25;51.56;95240.28;6215973;27;109102;-60
2023/09/21 06:33:07;;;;;;;13.25;11.95;;;;;;;23.26;51.26;95242.63;6234044;28;109316;-60
2023/09/21 06:36:15;;;;;;;13.05;11.40;;;;;;;23.27;51.61;95238.09;6223813;27;110232;-60
2023/09/21 06:39:19;;;;;;;16.17;14.48;;;;;;;23.27;51.52;95230.88;6234975;27;109107;-60
2023/09/21 06:42:22;;;;;;;14.03;11.23;;;;;;;23.31;51.56;95228.38;6259381;27;111407;-60
2023/09/21 06:45:28;;;;;;;11.60;10.50;;;;;;;23.39;51.16;95226.84;6258678;27;109255;-60
2023/09/21 06:48:33;;;;;;;12.40;11.20;;;;;;;23.46;51.14;95229.84;6248018;27;109153;-60
2023/09/21 06:51:36;;;;;;;11.65;10.45;;;;;;;23.50;51.15;95223.56;6258586;27;109310;-61
2023/09/21 06:54:40;;;;;;;12.80;11.50;;;;;;;23.53;51.03;95222.97;6249820;27;108874;-60
2023/09/21 06:57:43;;;;;;;12.02;10.93;;;;;;;23.53;50.88;95219.53;6229121;28;110189;-61
2023/09/21 07:00:47;;;;;;;12.90;11.70;;;;;;;23.52;50.96;95225.94;6226635;27;109624;-60
2023/09/21 07:03:51;;;;;;;11.80;10.60;;;;;;;23.50;50.74;95238.81;6232751;27;109054;-60
2023/09/21 07:06:54;;;;;;;11.88;10.50;;;;;;;23.48;50.94;95236.47;6233479;27;109489;-60
2023/09/21 07:10:00;;;;;;;11.87;10.60;;;;;;;23.48;50.88;95227.66;6222721;27;110007;-60
2023/09/21 07:13:05;;;;;;;11.40;10.30;;;;;;;23.49;50.73;95235.34;6233165;28;108778;-61
2023/09/21 07:16:08;;;;;;;12.00;10.80;;;;;;;23.53;50.76;95235.56;6233212;27;109465;-60
2023/09/21 07:19:14;;;;;;;10.50;9.50;;;;;;;23.57;50.61;95233.81;6233131;28;109095;-60
2023/09/21 07:22:17;;;;;;;10.50;9.50;;;;;;;23.55;50.91;95230.69;6222056;27;109250;-61
2023/09/21 07:25:22;;;;;;;11.52;10.43;;;;;;;23.55;50.58;95236.03;6232836;27;109207;-60
2023/09/21 07:28:25;;;;;;;10.95;9.95;;;;;;;23.63;50.76;95234.47;6233232;28;109652;-60
2023/09/21 07:31:29;;;;;;;10.68;8.93;;;;;;;23.71;50.44;95239.06;6233098;27;109348;-63
2023/09/21 07:34:34;;;;;;;9.35;8.35;;;;;;;23.83;50.41;95236.53;6223455;27;110144;-59
2023/09/21 07:37:37;;;;;;;9.40;8.50;;;;;;;23.93;50.41;95238.16;6233361;27;109151;-67
2023/09/21 07:40:41;;;;;;;9.07;8.00;;;;;;;23.94;49.91;95234.38;6234038;28;110052;-59
2023/09/21 07:43:45;;;;;;;9.57;8.23;;;;;;;23.93;50.24;95240.81;6225880;27;110483;-62
2023/09/21 07:46:49;;;;;;;8.90;8.10;;;;;;;23.93;50.28;95238.16;6232485;28;111133;-61
2023/09/21 07:49:55;;;;;;;8.50;7.70;;;;;;;23.88;50.28;95237.19;6233083;27;109028;-66
2023/09/21 07:52:59;;;;;;;8.32;7.53;;;;;;;23.93;50.49;95249.63;6232930;27;109082;-60
2023/09/21 07:56:05;;;;;;;9.20;8.30;;;;;;;23.90;50.35;95243.03;6221654;28;109272;-59
2023/09/21 07:59:09;;;;;;;9.90;8.90;;;;;;;23.89;50.44;95238.78;6246788;27;109797;-60
2023/09/21 08:02:13;;;;;;;10.75;9.70;;;;;;;23.88;50.37;95239.88;6256664;27;108944;-60
2023/09/21 08:05:18;;;;;;;10.60;9.70;;;;;;;23.85;50.65;95235.13;6257126;27;109183;-60
2023/09/21 08:08:21;;;;;;;11.40;10.30;;;;;;;23.85;50.70;95227.09;6246595;27;110186;-59
2023/09/21 08:11:24;;;;;;;10.77;9.70;;;;;;;23.81;50.56;95226.16;6257817;27;110307;-60
2023/09/21 08:14:29;;;;;;;10.02;9.13;;;;;;;23.81;50.59;95220.81;6258199;27;112086;-60
2023/09/21 08:17:32;;;;;;;10.77;9.67;;;;;;;23.82;50.62;95229.63;6256413;27;109101;-61
2023/09/21 08:20:39;;;;;;;10.40;9.40;;;;;;;23.82;50.71;95230.41;6256450;27;109534;-60
2023/09/21 08:23:43;;;;;;;11.10;10.10;;;;;;;23.80;50.65;95229.16;6252515;27;109542;-60
2023/09/21 08:26:46;;;;;;;11.10;10.20;;;;;;;23.79;50.44;95232.94;6212090;28;109243;-60
2023/09/21 08:29:50;;;;;;;11.10;10.10;;;;;;;23.77;50.54;95233.25;6219217;27;109127;-60
2023/09/21 08:32:53;;;;;;;11.20;10.30;;;;;;;23.76;50.50;95233.56;6236212;27;110343;-59
2023/09/21 08:35:57;;;;;;;11.55;10.45;;;;;;;23.73;50.93;95229.63;6236481;28;108878;-60
2023/09/21 08:39:01;;;;;;;10.97;9.97;;;;;;;23.76;50.89;95237.00;6236333;27;109717;-60
2023/09/21 08:42:04;;;;;;;11.52;10.45;;;;;;;23.77;50.79;95235.91;6224935;27;109076;-60
2023/09/21 08:45:09;;;;;;;12.65;11.55;;;;;;;23.75;50.90;95243.47;6236245;27;109217;-60
2023/09/21 08:48:17;;;;;;;13.80;12.70;;;;;;;23.75;50.59;95240.00;6236471;27;109218;-59
2023/09/21 08:51:22;;;;;;;15.25;13.85;;;;;;;23.72;50.63;95246.75;6207888;28;110004;-61
2023/09/21 08:54:26;;;;;;;14.27;13.00;;;;;;;23.69;50.99;95236.69;6218952;27;109005;-60
2023/09/21 08:57:31;;;;;;;14.48;12.98;;;;;;;23.70;50.88;95238.28;6235881;28;109365;-59
2023/09/21 09:00:36;;;;;;;13.50;12.30;;;;;;;23.71;51.00;95236.38;6235358;27;109237;-62
2023/09/21 09:03:40;;;;;;;13.87;12.67;;;;;;;23.69;51.06;95230.53;6224303;27;109296;-60
2023/09/21 09:06:45;;;;;;;13.05;11.85;;;;;;;23.66;51.00;95234.63;6235885;28;109262;-60
2023/09/21 09:09:48;;;;;;;12.90;11.70;;;;;;;23.65;51.06;95238.41;6234729;27;110345;-60
2023/09/21 09:13:05;;;;;;;11.97;10.87;;;;;;;23.64;50.89;95236.81;6235670;28;109442;-60
2023/09/21 09:16:09;;;;;;;11.50;10.50;;;;;;;23.62;51.35;95238.22;6199977;28;111467;-59
2023/09/21 09:19:12;;;;;;;11.60;10.40;;;;;;;23.62;51.51;95232.88;6220690;27;110416;-60
2023/09/21 09:22:17;;;;;;;11.38;10.38;;;;;;;23.58;51.28;95227.38;6235679;28;109134;-60
2023/09/21 09:25:21;;;;;;;10.70;9.70;;;;;;;23.59;51.57;95221.72;6232484;27;111320;-61
2023/09/21 09:28:25;;;;;;;10.85;9.75;;;;;;;23.58;51.49;95222.81;6228738;27;109285;-60
2023/09/21 09:31:28;;;;;;;10.48;9.30;;;;;;;23.58;51.11;95230.06;6235230;28;109147;-60
2023/09/21 09:34:32;;;;;;;11.68;10.57;;;;;;;23.59;51.24;95224.41;6246302;27;109052;-60
2023/09/21 09:37:38;;;;;;;11.93;10.73;;;;;;;23.59;51.41;95223.63;6250222;27;110157;-60
2023/09/21 09:40:42;;;;;;;11.43;10.32;;;;;;;23.59;51.60;95218.28;6260308;27;110129;-59
2023/09/21 09:43:51;;;;;;;10.45;9.65;;;;;;;23.60;51.27;95219.84;6259714;27;109240;-60
2023/09/21 09:46:57;;;;;;;10.60;9.70;;;;;;;23.60;51.60;95225.19;6260104;27;109245;-59
2023/09/21 09:50:03;;;;;;;10.05;9.05;;;;;;;23.59;51.41;95215.59;6233140;27;109507;-59
2023/09/21 09:53:10;;;;;;;10.02;9.02;;;;;;;23.59;51.60;95211.03;6234642;28;109131;-61
2023/09/21 09:56:15;;;;;;;10.25;9.35;;;;;;;23.59;51.68;95204.91;6260655;27;110030;-66
2023/09/21 09:59:20;;;;;;;9.88;9.07;;;;;;;23.60;51.55;95206.50;6259438;27;109252;-65
2023/09/21 10:02:25;;;;;;;10.30;9.40;;;;;;;23.60;51.62;95209.94;6224864;27;109258;-65
2023/09/21 10:05:31;;;;;;;10.70;9.60;;;;;;;23.59;51.50;95207.59;6229167;27;109152;-65
2023/09/21 10:08:39;;;;;;;10.52;9.52;;;;;;;23.60;51.87;95209.16;6234841;27;109068;-66
2023/09/21 10:11:46;;;;;;;10.98;9.43;;;;;;;23.58;51.65;95206.00;6224080;27;109008;-66
2023/09/21 10:14:50;;;;;;;11.40;9.40;;;;;;;23.63;52.08;95211.19;6247056;27;109252;-65
2023/09/21 10:17:56;;;;;;;10.60;9.50;;;;;;;23.64;52.03;95203.97;6259286;27;109189;-66
2023/09/21 10:20:59;;;;;;;10.23;9.23;;;;;;;23.68;51.79;95210.25;6237955;27;110463;-66
2023/09/21 10:24:06;;;;;;;10.68;9.40;;;;;;;23.70;51.53;95200.88;6226123;27;109130;-66
2023/09/21 10:27:10;;;;;;;9.80;8.80;;;;;;;23.72;51.73;95201.34;6234809;28;110069;-66
2023/09/21 10:30:18;;;;;;;10.07;9.07;;;;;;;23.79;51.32;95198.19;6248306;27;110081;-66
2023/09/21 10:33:25;;;;;;;10.57;8.90;;;;;;;23.82;51.58;95198.34;6259172;27;109018;-66
2023/09/21 10:36:30;;;;;;;10.57;8.85;;;;;;;23.88;51.32;95197.09;6249073;27;110176;-66
2023/09/21 10:39:39;;;;;;;9.43;8.53;;;;;;;23.92;51.77;95189.25;6258182;27;110420;-65
2023/09/21 10:42:42;;;;;;;8.70;7.80;;;;;;;23.93;51.29;95196.16;6259107;27;109743;-66
2023/09/21 10:45:55;;;;;;;9.05;8.18;;;;;;;23.94;51.37;95181.69;6229319;27;109077;-65
2023/09/21 10:49:14;;;;;;;9.10;8.30;;;;;;;24.00;51.54;95191.16;6234078;27;110176;-66
2023/09/21 10:52:18;;;;;;;9.00;8.10;;;;;;;24.01;51.01;95181.25;6233421;28;109903;-66
2023/09/21 10:55:22;;;;;;;8.77;7.97;;;;;;;24.04;50.98;95181.44;6236215;27;110206;-66
2023/09/21 10:58:26;;;;;;;8.90;8.10;;;;;;;24.07;51.36;95180.78;6222577;28;109109;-66
2023/09/21 11:01:30;;;;;;;9.10;8.20;;;;;;;24.10;51.15;95174.03;6256615;27;109632;-66
2023/09/21 11:04:33;;;;;;;9.77;8.88;;;;;;;24.11;50.95;95168.34;6258369;27;109175;-60
2023/09/21 11:07:37;;;;;;;9.52;8.63;;;;;;;24.11;51.31;95168.34;6255878;27;110345;-61
2023/09/21 11:10:42;;;;;;;9.73;8.82;;;;;;;24.14;50.97;95172.28;6233740;27;109623;-61
2023/09/21 11:13:50;;;;;;;9.48;8.68;;;;;;;24.16;51.10;95159.38;6233737;28;110230;-60
2023/09/21 11:16:53;;;;;;;9.75;8.80;;;;;;;24.16;50.89;95156.72;6208773;28;109862;-60
2023/09/21 11:19:57;;;;;;;9.80;8.90;;;;;;;24.15;51.18;95149.78;6206932;27;110037;-60
2023/09/21 11:23:03;;;;;;;9.20;8.30;;;;;;;24.16;50.92;95141.44;6233226;28;110324;-60
2023/09/21 11:26:11;;;;;;;9.30;8.40;;;;;;;24.17;50.97;95136.88;6232772;27;108985;-60
2023/09/21 11:29:16;;;;;;;9.97;9.07;;;;;;;24.15;50.86;95125.72;6233629;27;110177;-60
2023/09/21 11:32:19;;;;;;;9.27;8.47;;;;;;;24.15;51.01;95123.84;6222920;27;112376;-60
2023/09/21 11:35:23;;;;;;;9.70;8.80;;;;;;;24.16;50.92;95124.63;6232913;27;109123;-60
2023/09/21 11:38:29;;;;;;;10.20;9.20;;;;;;;24.16;50.75;95119.28;6231942;28;109112;-60
2023/09/21 11:41:33;;;;;;;9.27;8.37;;;;;;;24.16;50.84;95120.06;6232904;27;109129;-60
2023/09/21 11:44:37;;;;;;;9.38;8.57;;;;;;;24.16;50.89;95117.38;6223535;27;110118;-60
2023/09/21 11:47:40;;;;;;;8.88;8.07;;;;;;;24.13;50.93;95117.25;6233135;28;110275;-61
2023/09/21 11:50:44;;;;;;;8.60;7.80;;;;;;;24.10;51.16;95116.00;6234839;27;108916;-60
2023/09/21 11:53:48;;;;;;;8.75;7.95;;;;;;;24.14;51.17;95111.56;6228842;27;110106;-61
2023/09/21 11:56:52;;;;;;;8.57;7.77;;;;;;;24.13;50.53;95099.31;6236025;28;109063;-60
2023/09/21 11:59:56;;;;;;;8.60;7.90;;;;;;;24.16;50.86;95095.22;6244191;27;110208;-59
2023/09/21 12:02:59;;;;;;;8.80;8.00;;;;;;;24.18;50.73;95084.97;6262252;27;109346;-60
2023/09/21 12:06:04;;;;;;;8.40;7.70;;;;;;;24.15;50.95;95086.41;6250139;27;109199;-60
2023/09/21 12:09:12;;;;;;;8.23;7.53;;;;;;;24.17;50.55;95075.38;6260407;27;109075;-61
2023/09/21 12:12:17;;;;;;;8.48;7.72;;;;;;;24.18;50.77;95074.28;6211600;28;109415;-61
2023/09/21 12:15:20;;;;;;;8.77;8.07;;;;;;;24.17;50.55;95070.03;6231168;27;108929;-61
2023/09/21 12:18:26;;;;;;;9.02;8.10;;;;;;;24.16;50.78;95063.13;6250792;27;109131;-61
2023/09/21 12:21:30;;;;;;;9.33;8.60;;;;;;;24.17;50.72;95070.03;6261220;27;109036;-60
2023/09/21 12:24:34;;;;;;;8.73;7.93;;;;;;;24.15;50.94;95064.22;6257354;27;109448;-60
2023/09/21 12:27:39;;;;;;;9.20;8.40;;;;;;;24.17;50.73;95064.69;6231194;27;109310;-61
2023/09/21 12:30:44;;;;;;;9.25;8.45;;;;;;;24.14;50.77;95055.44;6219178;27;110229;-61
2023/09/21 12:33:47;;;;;;;8.55;7.85;;;;;;;24.16;50.92;95053.22;6211432;28;108977;-61
2023/09/21 12:36:51;;;;;;;9.00;8.20;;;;;;;24.18;50.78;95059.03;6254140;27;110495;-67
2023/09/21 12:39:54;;;;;;;9.60;8.70;;;;;;;24.18;50.73;95051.00;6250559;27;109496;-67
2023/09/21 12:42:59;;;;;;;10.32;9.43;;;;;;;24.17;51.33;95051.31;6261384;27;109083;-68
2023/09/21 12:46:03;;;;;;;10.45;9.48;;;;;;;24.18;51.47;95039.53;6261443;27;108861;-67
2023/09/21 12:49:06;;;;;;;10.13;9.23;;;;;;;24.18;51.42;95036.84;6261246;27;109198;-67
2023/09/21 12:52:10;;;;;;;10.18;9.23;;;;;;;24.12;51.69;95032.78;6249532;27;109562;-67
2023/09/21 12:55:13;;;;;;;10.20;9.10;;;;;;;24.08;51.61;95035.31;6257864;27;109279;-68
2023/09/21 12:58:17;;;;;;;11.02;8.95;;;;;;;24.07;51.77;95041.00;6260784;27;109255;-68
2023/09/21 13:01:21;;;;;;;9.43;8.50;;;;;;;23.98;51.70;95016.13;6254772;27;109151;-67
2023/09/21 13:04:24;;;;;;;9.30;8.40;;;;;;;24.09;51.56;95023.53;6255574;27;110312;-67
2023/09/21 13:07:28;;;;;;;9.50;8.60;;;;;;;24.13;51.77;95023.66;6260993;27;109994;-66
2023/09/21 13:10:31;;;;;;;10.60;9.57;;;;;;;24.17;51.64;95027.25;6259320;27;109285;-67
2023/09/21 13:13:37;;;;;;;9.50;8.60;;;;;;;24.17;51.61;95019.25;6250111;27;109166;-67
2023/09/21 13:16:40;;;;;;;9.40;8.50;;;;;;;24.18;51.78;95020.81;6260516;27;109024;-67
2023/09/21 13:19:43;;;;;;;9.57;8.57;;;;;;;24.16;51.44;95017.66;6260339;27;109386;-66
2023/09/21 13:22:47;;;;;;;9.38;8.48;;;;;;;24.18;52.31;95012.78;6260372;27;109153;-67
2023/09/21 13:25:51;;;;;;;9.18;8.27;;;;;;;24.19;51.81;95009.00;6235013;27;109333;-69
2023/09/21 13:28:55;;;;;;;9.00;8.10;;;;;;;24.17;51.78;95011.22;6235775;28;109066;-70
2023/09/21 13:31:59;;;;;;;8.60;7.90;;;;;;;24.21;51.95;95001.47;6231968;27;109276;-70
2023/09/21 13:35:04;;;;;;;8.52;7.72;;;;;;;24.21;51.69;95004.16;6214287;27;109207;-70
2023/09/21 13:38:07;;;;;;;8.80;8.00;;;;;;;24.16;51.94;94996.28;6224515;27;111792;-70
2023/09/21 13:41:11;;;;;;;8.63;7.82;;;;;;;24.20;52.09;94994.56;6234274;27;109098;-70
2023/09/21 13:44:15;;;;;;;8.10;7.40;;;;;;;24.18;51.61;94999.41;6223604;28;109567;-70
2023/09/21 13:47:18;;;;;;;8.65;7.20;;;;;;;24.23;51.35;94991.25;6244549;27;109837;-68
2023/09/21 13:50:22;;;;;;;9.18;7.53;;;;;;;24.18;51.19;94997.53;6252634;27;109627;-69
2023/09/21 13:53:25;;;;;;;8.10;7.40;;;;;;;24.17;51.09;94992.50;6213224;28;109247;-69
2023/09/21 13:56:28;;;;;;;9.27;7.72;;;;;;;24.17;50.99;94992.50;6228562;27;109307;-70
2023/09/21 13:59:32;;;;;;;8.40;7.60;;;;;;;24.17;51.23;94984.47;6224048;27;109137;-69
2023/09/21 14:02:36;;;;;;;8.55;7.85;;;;;;;24.20;51.09;94981.19;6235032;27;109129;-69
2023/09/21 14:05:39;;;;;;;8.50;7.70;;;;;;;24.23;51.44;94987.78;6234824;27;109284;-70
2023/09/21 14:08:43;;;;;;;8.50;7.60;;;;;;;24.22;50.84;94981.66;6234390;28;109047;-71
2023/09/21 14:11:47;;;;;;;8.40;7.60;;;;;;;24.19;50.90;94980.41;6223438;27;109278;-69